Time;durP1;ratioP1;P1;durP2;ratioP2;P2;SDS_P1;SDS_P2;PMS_P1;PMS_P2;Temp;Humidity;BMP_temperature;BMP_pressure;BME280_temperature;BME280_humidity;BME280_pressure;Samples;Min_cycle;Max_cycle;Signal;HPM_P1;HPM_P2
2022/07/30 00:04:48;;;;;;;19.83;12.63;;;;;;;17.27;82.74;100493.81;10210030;29;20058;-78
2022/07/30 00:09:51;;;;;;;13.75;11.55;;;;;;;17.18;82.87;100492.94;10199796;29;20579;-80
2022/07/30 00:14:55;;;;;;;15.77;11.55;;;;;;;17.24;83.60;100489.56;10202481;29;20059;-79
2022/07/30 00:19:58;;;;;;;16.48;12.63;;;;;;;17.28;83.56;100491.94;10202882;29;20087;-80
2022/07/30 00:25:01;;;;;;;14.20;11.50;;;;;;;17.26;83.62;100494.84;10201893;29;20055;-79
2022/07/30 00:30:07;;;;;;;17.98;13.27;;;;;;;17.11;82.40;100491.84;10202856;29;20083;-80
2022/07/30 00:35:10;;;;;;;13.57;11.45;;;;;;;17.10;83.22;100487.44;10216175;29;20048;-78
2022/07/30 00:40:13;;;;;;;16.80;13.43;;;;;;;17.11;82.27;100480.16;10206750;29;20059;-80
2022/07/30 00:45:19;;;;;;;16.80;14.20;;;;;;;17.02;83.38;100469.28;10202981;29;20051;-79
2022/07/30 00:50:22;;;;;;;15.45;13.07;;;;;;;16.99;82.83;100475.03;10200680;29;20047;-78
2022/07/30 00:55:25;;;;;;;16.20;13.05;;;;;;;17.09;83.49;100472.19;10197068;29;20436;-78
2022/07/30 01:00:29;;;;;;;18.38;13.18;;;;;;;17.00;82.23;100470.44;10196520;29;20056;-78
2022/07/30 01:05:34;;;;;;;42.25;16.52;;;;;;;17.00;83.63;100465.00;10196535;29;20663;-78
2022/07/30 01:10:37;;;;;;;20.38;13.82;;;;;;;17.09;84.05;100455.06;10175212;29;20047;-79
2022/07/30 01:15:42;;;;;;;19.30;14.32;;;;;;;17.07;83.89;100455.22;10194546;29;20052;-79
2022/07/30 01:20:49;;;;;;;17.83;13.32;;;;;;;17.10;84.03;100459.47;10192377;29;20059;-78
2022/07/30 01:25:56;;;;;;;17.40;12.90;;;;;;;17.09;83.75;100449.63;10192880;29;20055;-79
2022/07/30 01:31:00;;;;;;;16.30;13.27;;;;;;;17.08;83.90;100434.34;10192492;29;20052;-78
2022/07/30 01:36:07;;;;;;;16.75;13.48;;;;;;;17.08;84.29;100437.06;10191538;29;20075;-78
2022/07/30 01:41:13;;;;;;;19.05;15.13;;;;;;;17.08;84.14;100429.75;10191684;29;20409;-79
2022/07/30 01:46:18;;;;;;;18.63;13.90;;;;;;;16.92;83.29;100444.16;10190951;29;20056;-78
2022/07/30 01:51:24;;;;;;;19.25;14.23;;;;;;;16.94;83.85;100449.41;10191634;29;20060;-79
2022/07/30 01:56:37;;;;;;;16.48;13.43;;;;;;;17.03;84.33;100452.00;10188322;29;20044;-78
2022/07/30 02:01:40;;;;;;;15.15;13.48;;;;;;;17.07;84.19;100446.22;10206095;29;20055;-78
2022/07/30 02:06:48;;;;;;;16.63;13.43;;;;;;;17.13;84.28;100449.16;10189581;29;20047;-78
2022/07/30 02:17:21;;;;;;;23.52;14.13;;;;;;;16.99;83.92;100450.59;10188947;29;20534;-79
2022/07/30 02:22:37;;;;;;;18.45;13.70;;;;;;;17.03;84.36;100454.72;10195212;29;20071;-79
2022/07/30 02:27:44;;;;;;;16.77;13.38;;;;;;;17.06;84.32;100450.81;10190500;29;20052;-79
2022/07/30 02:32:48;;;;;;;17.63;14.82;;;;;;;17.04;84.52;100448.25;10188091;29;20078;-79
2022/07/30 02:37:54;;;;;;;16.60;14.77;;;;;;;17.04;84.36;100442.81;10202769;29;20063;-78
2022/07/30 02:43:00;;;;;;;19.23;14.90;;;;;;;17.03;84.52;100449.28;10190523;29;20074;-78
2022/07/30 02:48:07;;;;;;;24.27;15.70;;;;;;;17.04;84.57;100450.97;10203300;29;20044;-78
2022/07/30 02:53:14;;;;;;;21.35;16.10;;;;;;;16.96;84.24;100448.22;10190802;29;20040;-79
2022/07/30 02:58:22;;;;;;;19.42;15.25;;;;;;;16.98;84.56;100457.06;10192350;29;20047;-79
2022/07/30 03:03:28;;;;;;;23.65;16.48;;;;;;;16.88;84.04;100464.47;10191133;29;21074;-79
2022/07/30 03:08:32;;;;;;;20.77;17.83;;;;;;;16.80;83.69;100461.72;10188209;29;20206;-78
2022/07/30 03:13:37;;;;;;;27.00;18.35;;;;;;;16.82;82.97;100459.72;10197529;29;20079;-79
2022/07/30 03:18:42;;;;;;;28.45;20.77;;;;;;;16.83;82.83;100465.97;10192553;29;20055;-78
2022/07/30 03:23:47;;;;;;;32.97;22.45;;;;;;;16.81;82.54;100474.28;10201302;29;20058;-78
2022/07/30 03:28:53;;;;;;;31.88;23.05;;;;;;;16.80;82.58;100470.72;10201979;29;20059;-79
2022/07/30 03:33:56;;;;;;;33.15;23.27;;;;;;;16.80;82.28;100472.56;10188313;29;20110;-79
2022/07/30 03:39:01;;;;;;;32.15;22.90;;;;;;;16.68;81.88;100484.75;10198689;29;20393;-79
2022/07/30 03:44:07;;;;;;;30.33;21.77;;;;;;;16.57;82.66;100489.44;10201494;29;20664;-79
2022/07/30 03:49:11;;;;;;;26.73;23.33;;;;;;;16.70;83.12;100490.84;10198682;29;20052;-78
2022/07/30 03:54:19;;;;;;;29.27;21.30;;;;;;;16.72;82.45;100488.81;10199187;29;20059;-78
2022/07/30 03:59:59;;;;;;;27.38;20.63;;;;;;;16.77;82.96;100491.91;10170486;29;20126;-79
2022/07/30 04:05:02;;;;;;;25.60;19.70;;;;;;;16.86;83.56;100496.34;10208442;29;20063;-79
2022/07/30 04:10:06;;;;;;;23.38;20.92;;;;;;;16.96;82.73;100505.22;10215487;29;21695;-79
2022/07/30 04:15:45;;;;;;;26.57;21.00;;;;;;;16.92;82.44;100513.81;10198538;29;20063;-79
2022/07/30 04:21:11;;;;;;;20.88;16.80;;;;;;;16.93;82.07;100512.84;10202330;29;20059;-79
2022/07/30 04:26:19;;;;;;;19.17;16.52;;;;;;;16.84;81.28;100520.09;10208570;29;20062;-79
2022/07/30 04:31:26;;;;;;;23.85;16.65;;;;;;;16.87;82.29;100530.63;10200214;29;20048;-79
2022/07/30 04:36:35;;;;;;;19.90;14.60;;;;;;;16.92;81.87;100520.13;10200257;29;20047;-78
2022/07/30 04:41:39;;;;;;;20.23;14.77;;;;;;;16.93;81.79;100535.38;10202241;29;20047;-79
2022/07/30 04:47:02;;;;;;;19.58;12.85;;;;;;;17.01;81.57;100535.41;10199911;29;20048;-78
2022/07/30 04:52:11;;;;;;;14.18;12.25;;;;;;;17.09;81.99;100533.78;10198159;29;20120;-79
2022/07/30 04:57:15;;;;;;;16.88;12.07;;;;;;;17.17;81.83;100536.56;10200198;29;20299;-78
2022/07/30 05:02:22;;;;;;;17.08;13.55;;;;;;;17.24;82.54;100546.56;10188420;29;20075;-79
2022/07/30 05:07:27;;;;;;;17.15;13.23;;;;;;;17.37;81.07;100537.13;10194306;29;20039;-79
2022/07/30 05:12:33;;;;;;;18.30;13.70;;;;;;;17.41;80.68;100541.19;10198740;29;21056;-78
2022/07/30 05:17:38;;;;;;;16.13;13.23;;;;;;;17.49;80.95;100552.06;10199869;29;20056;-78
2022/07/30 05:22:43;;;;;;;22.33;14.15;;;;;;;17.56;80.33;100546.84;10201714;29;20804;-79
2022/07/30 05:27:55;;;;;;;17.20;15.15;;;;;;;17.60;80.61;100546.31;10196436;29;20142;-79
2022/07/30 05:32:59;;;;;;;26.40;16.05;;;;;;;17.60;80.04;100548.19;10210066;29;20531;-78
2022/07/30 05:38:06;;;;;;;19.80;16.67;;;;;;;17.54;78.65;100554.31;10188624;29;21284;-78
2022/07/30 05:43:20;;;;;;;18.27;16.23;;;;;;;17.57;79.23;100553.97;10199559;29;20069;-78
2022/07/30 05:48:25;;;;;;;17.15;15.35;;;;;;;17.55;78.44;100561.41;10202281;29;20051;-78
2022/07/30 05:53:28;;;;;;;17.38;15.52;;;;;;;17.61;78.90;100571.66;10203078;29;20071;-78
2022/07/30 05:59:01;;;;;;;18.75;16.10;;;;;;;17.77;79.38;100579.84;10190568;29;20137;-79
2022/07/30 06:04:26;;;;;;;18.02;14.68;;;;;;;17.87;79.06;100580.50;10178547;29;20080;-80
2022/07/30 06:09:36;;;;;;;18.13;14.77;;;;;;;18.02;78.76;100580.75;10194494;29;20047;-79
2022/07/30 06:14:42;;;;;;;9.77;5.72;;;;;;;18.09;78.09;100583.63;10187938;29;20048;-80
2022/07/30 06:19:52;;;;;;;10.50;6.07;;;;;;;18.27;77.21;100572.59;10188324;29;20122;-80
2022/07/30 06:24:57;;;;;;;12.18;7.43;;;;;;;18.33;75.90;100575.47;10193820;29;20051;-80
2022/07/30 06:30:02;;;;;;;19.17;11.52;;;;;;;18.17;74.63;100583.63;10191405;29;20050;-79
2022/07/30 06:35:07;;;;;;;16.48;11.55;;;;;;;18.32;74.83;100591.94;10178239;29;20074;-80
2022/07/30 06:40:12;;;;;;;13.38;11.23;;;;;;;18.43;73.70;100599.81;10183953;29;20047;-80
2022/07/30 06:45:35;;;;;;;12.73;10.35;;;;;;;18.84;73.75;100610.66;10181784;29;20094;-78
2022/07/30 06:50:54;;;;;;;11.73;10.50;;;;;;;19.14;72.54;100597.28;10163461;28;20137;-79
2022/07/30 06:55:58;;;;;;;17.33;10.70;;;;;;;19.89;71.28;100594.91;10170777;29;21221;-79
2022/07/30 07:01:09;;;;;;;8.23;7.38;;;;;;;20.16;68.84;100592.69;10172753;28;20177;-79
2022/07/30 07:06:15;;;;;;;8.85;7.32;;;;;;;20.19;66.55;100586.88;10177234;28;20044;-79
2022/07/30 07:11:18;;;;;;;11.40;9.05;;;;;;;20.33;66.52;100579.81;10174462;28;20126;-80
2022/07/30 07:16:28;;;;;;;9.80;8.15;;;;;;;20.61;66.75;100588.22;10192147;28;20040;-79
2022/07/30 07:28:10;;;;;;;12.30;8.68;;;;;;;20.32;62.77;100586.28;10256883;28;20138;-81
2022/07/30 07:33:18;;;;;;;11.82;7.22;;;;;;;20.65;63.19;100585.97;10245525;28;20047;-80
2022/07/30 07:38:26;;;;;;;12.68;8.50;;;;;;;21.11;60.86;100585.84;10227127;29;20054;-80
2022/07/30 07:43:32;;;;;;;11.95;9.57;;;;;;;21.40;58.38;100582.25;10177730;29;20044;-80
2022/07/30 07:48:38;;;;;;;12.18;9.80;;;;;;;22.39;58.14;100584.41;10178771;29;20055;-80
2022/07/30 07:53:53;;;;;;;18.35;9.25;;;;;;;23.80;53.43;100583.16;10176878;29;20063;-80
2022/07/30 07:59:19;;;;;;;14.65;8.95;;;;;;;23.79;53.99;100580.66;10177388;29;20047;-81
2022/07/30 08:04:22;;;;;;;12.32;9.05;;;;;;;23.35;55.12;100581.94;10194884;29;20048;-81
2022/07/30 08:09:45;;;;;;;10.65;8.40;;;;;;;22.26;55.91;100587.84;10153452;29;20065;-80
2022/07/30 08:15:13;;;;;;;10.00;8.48;;;;;;;21.46;59.11;100581.50;10148829;29;20059;-80
2022/07/30 08:20:39;;;;;;;13.95;9.60;;;;;;;22.21;58.67;100577.47;10184297;29;20048;-81
2022/07/30 08:25:42;;;;;;;10.50;7.95;;;;;;;21.31;56.70;100572.47;10189268;29;20058;-81
2022/07/30 08:30:48;;;;;;;9.93;7.57;;;;;;;21.73;58.90;100574.47;10182359;29;20583;-78
2022/07/30 08:35:52;;;;;;;11.48;9.18;;;;;;;22.66;56.40;100566.34;10202300;29;20059;-78
2022/07/30 08:41:01;;;;;;;15.98;8.60;;;;;;;23.43;55.14;100568.06;10184458;29;20443;-79
2022/07/30 08:46:10;;;;;;;8.73;6.95;;;;;;;24.45;51.72;100557.97;10189371;29;20074;-80
2022/07/30 08:51:28;;;;;;;11.13;8.80;;;;;;;23.16;54.59;100567.09;10185234;29;20043;-80
2022/07/30 08:56:50;;;;;;;10.82;9.25;;;;;;;23.91;52.97;100567.16;10187013;29;20067;-80
2022/07/30 09:01:54;;;;;;;11.25;8.88;;;;;;;23.49;54.00;100567.22;10185958;29;20063;-79
2022/07/30 09:06:57;;;;;;;11.75;9.65;;;;;;;23.00;55.58;100577.28;10182330;29;20047;-78
2022/07/30 09:12:00;;;;;;;13.00;8.93;;;;;;;23.74;52.65;100580.38;10182673;29;20043;-79
2022/07/30 09:17:05;;;;;;;13.85;9.85;;;;;;;24.40;51.12;100577.81;10184643;29;20044;-80
2022/07/30 09:22:08;;;;;;;12.20;9.43;;;;;;;24.65;50.80;100575.25;10192129;29;20063;-80
2022/07/30 09:27:45;;;;;;;11.45;10.13;;;;;;;23.38;54.19;100590.59;10184482;29;21169;-80
2022/07/30 09:33:10;;;;;;;14.27;9.98;;;;;;;23.04;53.55;100585.09;10173132;29;20056;-80
2022/07/30 09:38:48;;;;;;;13.40;10.10;;;;;;;22.58;55.04;100588.38;10163190;29;20090;-80
2022/07/30 09:44:24;;;;;;;12.98;8.98;;;;;;;23.36;52.60;100587.19;10183023;29;20568;-80
2022/07/30 09:49:31;;;;;;;18.13;9.38;;;;;;;23.89;51.17;100592.06;10180581;29;20043;-79
2022/07/30 09:54:47;;;;;;;8.40;7.43;;;;;;;25.33;47.61;100577.66;10200923;29;20521;-80
2022/07/30 09:59:56;;;;;;;10.40;9.27;;;;;;;26.37;45.67;100583.06;10181384;29;20599;-80
2022/07/30 10:05:13;;;;;;;11.05;7.72;;;;;;;26.08;46.09;100594.47;10180605;28;20052;-77
2022/07/30 10:10:18;;;;;;;7.65;5.20;;;;;;;25.58;45.23;100591.50;10174355;28;20130;-80
2022/07/30 10:15:27;;;;;;;9.23;6.70;;;;;;;24.56;47.97;100590.25;10181991;29;20244;-79
2022/07/30 10:20:32;;;;;;;8.43;5.72;;;;;;;25.34;46.44;100590.38;10200256;29;20052;-80
2022/07/30 10:26:00;;;;;;;7.28;5.95;;;;;;;24.82;47.53;100586.66;10153917;28;20050;-79
2022/07/30 10:31:37;;;;;;;7.07;5.00;;;;;;;26.01;45.13;100590.06;10203399;29;20242;-82
2022/07/30 10:37:01;;;;;;;6.40;5.45;;;;;;;25.35;46.87;100594.78;10205306;29;20069;-81
2022/07/30 10:42:24;;;;;;;5.55;5.05;;;;;;;24.75;47.38;100599.56;10205691;29;20136;-81
2022/07/30 10:47:28;;;;;;;5.82;4.93;;;;;;;26.81;42.61;100583.91;10207637;29;20052;-81
2022/07/30 10:52:49;;;;;;;7.72;5.80;;;;;;;25.34;44.70;100592.25;10226050;29;20051;-80
2022/07/30 10:58:00;;;;;;;6.75;5.93;;;;;;;26.04;44.79;100584.09;10222031;28;20043;-81
2022/07/30 11:03:27;;;;;;;10.20;7.10;;;;;;;25.36;46.17;100581.88;10217184;29;20091;-82
2022/07/30 11:08:49;;;;;;;11.13;8.10;;;;;;;24.50;48.17;100586.47;10191628;29;20063;-82
2022/07/30 11:13:54;;;;;;;8.65;7.30;;;;;;;25.68;45.00;100582.84;10202336;29;20095;-80
2022/07/30 11:19:10;;;;;;;10.65;7.15;;;;;;;26.20;44.42;100582.72;10219627;29;20075;-82
2022/07/30 11:24:46;;;;;;;7.40;6.70;;;;;;;25.85;45.36;100584.00;10202412;29;20126;-82
2022/07/30 11:29:50;;;;;;;7.72;7.00;;;;;;;26.76;42.62;100569.97;10202615;29;20725;-81
2022/07/30 11:35:15;;;;;;;10.75;6.60;;;;;;;27.54;42.21;100566.59;10201767;29;20701;-81
2022/07/30 11:40:19;;;;;;;9.13;6.25;;;;;;;29.31;39.20;100554.72;10193749;29;20051;-79
2022/07/30 11:45:29;;;;;;;7.15;4.80;;;;;;;27.34;41.25;100564.06;10199545;29;20051;-79
2022/07/30 11:50:33;;;;;;;8.35;5.53;;;;;;;28.21;40.56;100570.09;10214437;29;20054;-83
2022/07/30 11:55:39;;;;;;;13.93;6.90;;;;;;;26.71;42.50;100568.75;10251364;28;20046;-82
2022/07/30 12:00:46;;;;;;;9.65;5.93;;;;;;;27.09;42.29;100572.41;10206944;29;20110;-79
2022/07/30 12:05:50;;;;;;;6.20;4.65;;;;;;;27.24;40.84;100566.53;10206032;29;20505;-81
2022/07/30 12:10:59;;;;;;;7.60;4.93;;;;;;;28.55;38.93;100556.59;10205923;29;20466;-82
2022/07/30 12:16:07;;;;;;;7.32;5.05;;;;;;;30.66;34.56;100552.25;10202069;29;20060;-81
2022/07/30 12:21:12;;;;;;;6.28;4.13;;;;;;;30.60;34.79;100556.00;10196416;29;20107;-81
2022/07/30 12:33:03;;;;;;;6.28;3.53;;;;;;;29.31;36.33;100551.13;10206838;29;20054;-81
2022/07/30 12:38:06;;;;;;;7.22;3.70;;;;;;;29.38;37.33;100549.91;10210174;29;20082;-80
2022/07/30 12:43:10;;;;;;;4.53;3.28;;;;;;;30.47;35.04;100543.34;10206355;29;20119;-82
2022/07/30 12:48:16;;;;;;;6.45;3.33;;;;;;;29.97;35.40;100548.81;10203812;29;20115;-81
2022/07/30 12:53:29;;;;;;;5.25;3.22;;;;;;;27.87;37.23;100543.22;10207147;29;20085;-80
2022/07/30 12:58:36;;;;;;;5.82;3.10;;;;;;;29.15;34.18;100541.66;10200348;29;20071;-81
2022/07/30 13:03:40;;;;;;;7.18;3.03;;;;;;;29.41;34.59;100537.50;10178825;29;20519;-80
2022/07/30 13:09:01;;;;;;;4.75;3.40;;;;;;;29.80;34.34;100538.56;10196740;29;20076;-78
2022/07/30 13:14:05;;;;;;;7.23;3.27;;;;;;;27.53;37.65;100543.66;10182323;29;20067;-77
2022/07/30 13:19:11;;;;;;;7.72;3.67;;;;;;;28.30;35.82;100540.19;10190611;29;20075;-80
2022/07/30 13:24:14;;;;;;;5.68;3.35;;;;;;;27.38;37.51;100546.81;10182438;29;20078;-79
2022/07/30 13:29:20;;;;;;;4.60;2.80;;;;;;;27.93;37.42;100534.81;10186498;29;20086;-78
2022/07/30 13:34:24;;;;;;;5.32;3.65;;;;;;;27.14;38.04;100542.25;10184018;29;20066;-80
2022/07/30 13:39:27;;;;;;;3.78;3.03;;;;;;;26.11;40.58;100556.53;10184271;29;20106;-80
2022/07/30 13:44:30;;;;;;;9.75;3.55;;;;;;;25.35;41.25;100550.81;10182990;28;20055;-81
2022/07/30 13:49:35;;;;;;;4.97;2.90;;;;;;;24.66;42.59;100546.75;10184989;29;20044;-81
2022/07/30 13:54:38;;;;;;;7.60;3.35;;;;;;;25.25;41.48;100550.41;10184583;29;20050;-78
2022/07/30 13:59:40;;;;;;;3.30;2.80;;;;;;;25.33;41.13;100543.84;10182245;29;20063;-79
2022/07/30 14:04:44;;;;;;;4.72;2.90;;;;;;;25.14;42.14;100546.44;10183937;29;20051;-80
2022/07/30 14:09:48;;;;;;;3.45;3.00;;;;;;;25.42;41.67;100542.50;10206586;29;20048;-80
2022/07/30 14:14:56;;;;;;;5.70;3.50;;;;;;;25.41;41.09;100540.84;10178645;29;20102;-80
2022/07/30 14:20:00;;;;;;;5.22;3.88;;;;;;;25.29;41.45;100542.59;10171715;28;20054;-81
2022/07/30 14:25:04;;;;;;;5.35;3.05;;;;;;;26.10;39.71;100536.41;10188901;29;20465;-81
2022/07/30 14:30:09;;;;;;;3.28;2.97;;;;;;;26.82;38.14;100533.25;10222824;28;20039;-82
2022/07/30 14:35:13;;;;;;;4.13;2.47;;;;;;;25.93;39.63;100527.88;10216136;29;20051;-82
2022/07/30 14:40:16;;;;;;;3.03;2.70;;;;;;;25.92;40.35;100533.56;10207685;29;20051;-81
2022/07/30 14:45:19;;;;;;;4.45;2.85;;;;;;;25.89;40.37;100531.28;10206105;28;20106;-82
2022/07/30 14:50:23;;;;;;;4.13;2.80;;;;;;;26.54;39.25;100529.06;10240814;28;20047;-81
2022/07/30 14:55:26;;;;;;;4.03;2.88;;;;;;;27.17;38.15;100526.06;10217441;29;20055;-82
2022/07/30 15:00:29;;;;;;;3.53;2.90;;;;;;;26.91;37.49;100534.69;10221630;29;20673;-80
2022/07/30 15:05:51;;;;;;;4.45;2.85;;;;;;;27.98;36.71;100532.25;10203891;29;20187;-79
2022/07/30 15:10:54;;;;;;;4.93;3.03;;;;;;;28.12;37.81;100524.59;10200341;29;20107;-79
2022/07/30 15:16:01;;;;;;;5.25;3.00;;;;;;;27.15;37.79;100531.00;10203457;29;20056;-79
2022/07/30 15:21:05;;;;;;;5.15;3.03;;;;;;;27.16;38.13;100521.66;10199662;29;20413;-81
2022/07/30 15:26:08;;;;;;;4.07;2.63;;;;;;;28.76;36.12;100521.97;10196717;29;20051;-78
2022/07/30 15:31:11;;;;;;;3.85;2.40;;;;;;;30.08;34.33;100514.66;10196107;29;20051;-81
2022/07/30 15:36:15;;;;;;;4.47;2.67;;;;;;;28.41;34.87;100514.50;10198009;28;21378;-79
2022/07/30 15:41:18;;;;;;;4.70;2.78;;;;;;;27.86;36.30;100514.75;10199717;29;20060;-78
2022/07/30 15:46:21;;;;;;;4.15;2.70;;;;;;;27.76;36.61;100520.03;10194290;29;20429;-81
2022/07/30 15:51:26;;;;;;;5.22;2.83;;;;;;;27.46;35.78;100515.34;10214965;28;20070;-79
2022/07/30 15:56:32;;;;;;;6.95;2.50;;;;;;;27.59;36.04;100522.59;10164685;29;20044;-80
2022/07/30 16:01:34;;;;;;;5.97;2.38;;;;;;;27.29;35.27;100519.78;10191747;29;20048;-79
2022/07/30 16:06:40;;;;;;;3.85;2.50;;;;;;;27.37;35.64;100511.19;10194620;29;20292;-80
2022/07/30 16:11:43;;;;;;;3.80;2.40;;;;;;;26.27;37.04;100515.56;10201324;28;20058;-79
2022/07/30 16:16:48;;;;;;;3.47;2.30;;;;;;;25.90;37.48;100519.22;10177503;29;20059;-80
2022/07/30 16:21:52;;;;;;;2.88;2.60;;;;;;;25.40;38.03;100518.00;10190266;29;20127;-79
2022/07/30 16:26:55;;;;;;;2.70;2.28;;;;;;;26.27;36.95;100523.84;10209720;29;20059;-79
2022/07/30 16:31:58;;;;;;;3.78;2.67;;;;;;;27.56;34.89;100517.53;10197065;29;20792;-79
2022/07/30 16:37:03;;;;;;;3.67;2.33;;;;;;;27.87;34.52;100519.22;10198240;29;20058;-79
2022/07/30 16:42:06;;;;;;;2.65;2.05;;;;;;;26.78;35.58;100518.25;10206183;29;20066;-79
2022/07/30 16:47:09;;;;;;;4.45;2.55;;;;;;;28.37;33.99;100518.84;10197845;29;20587;-81
2022/07/30 16:52:17;;;;;;;6.10;2.22;;;;;;;27.03;34.74;100529.22;10199110;29;20101;-80
2022/07/30 16:57:20;;;;;;;2.92;2.33;;;;;;;27.23;34.72;100531.75;10216049;29;20052;-80
2022/07/30 17:02:23;;;;;;;6.28;2.17;;;;;;;28.11;34.39;100527.56;10202322;29;20062;-78
2022/07/30 17:07:27;;;;;;;4.78;2.30;;;;;;;30.10;31.43;100520.81;10200969;29;20062;-79
2022/07/30 17:12:30;;;;;;;3.65;2.53;;;;;;;29.96;30.97;100522.22;10198765;29;20051;-80
2022/07/30 17:17:33;;;;;;;6.07;2.40;;;;;;;30.21;30.32;100524.63;10196577;29;20079;-79
2022/07/30 17:22:37;;;;;;;4.63;2.15;;;;;;;30.89;28.70;100530.94;10198639;29;20128;-81
2022/07/30 17:27:44;;;;;;;2.35;1.70;;;;;;;31.81;28.42;100525.69;10199182;29;20111;-80
2022/07/30 17:32:47;;;;;;;1.95;1.77;;;;;;;31.52;28.40;100529.53;10201320;29;20111;-79
2022/07/30 17:37:51;;;;;;;5.05;2.00;;;;;;;29.68;30.17;100542.50;10201759;29;20111;-81
2022/07/30 17:42:55;;;;;;;5.20;2.40;;;;;;;31.18;28.48;100537.16;10203044;29;20059;-80
2022/07/30 17:48:00;;;;;;;3.63;2.60;;;;;;;30.07;29.39;100534.31;10199054;29;21178;-79
2022/07/30 17:53:06;;;;;;;5.07;2.25;;;;;;;28.32;31.89;100535.28;10201513;29;20502;-78
2022/07/30 17:58:09;;;;;;;3.17;2.35;;;;;;;27.80;32.91;100546.06;10219287;28;20048;-79
2022/07/30 18:03:11;;;;;;;2.33;1.60;;;;;;;28.22;31.99;100541.41;10216033;28;20087;-80
2022/07/30 18:08:16;;;;;;;5.07;1.60;;;;;;;26.72;33.99;100553.91;10181188;29;20059;-78
2022/07/30 18:13:18;;;;;;;2.58;1.70;;;;;;;25.36;36.19;100549.72;10183184;28;20055;-78
2022/07/30 18:18:28;;;;;;;4.43;2.00;;;;;;;24.95;37.17;100559.13;10196636;29;20054;-79
2022/07/30 18:23:34;;;;;;;3.35;1.73;;;;;;;24.59;37.98;100570.63;10204141;29;20055;-81
2022/07/30 18:28:36;;;;;;;6.25;2.00;;;;;;;23.93;39.35;100567.81;10219127;28;20052;-81
2022/07/30 18:33:39;;;;;;;2.28;1.55;;;;;;;23.76;40.09;100578.28;10211092;28;20039;-81
2022/07/30 18:38:48;;;;;;;3.75;1.95;;;;;;;23.65;40.02;100582.47;10208898;28;21269;-81
2022/07/30 18:43:52;;;;;;;3.22;1.90;;;;;;;23.57;40.44;100580.75;10208860;28;20055;-80
2022/07/30 18:48:55;;;;;;;3.78;2.13;;;;;;;23.21;40.72;100579.13;10204302;28;20118;-80
2022/07/30 18:54:00;;;;;;;2.58;1.70;;;;;;;23.19;41.04;100578.47;10197146;28;20118;-80
2022/07/30 18:59:03;;;;;;;5.70;2.00;;;;;;;23.09;41.61;100582.59;10199537;29;20060;-80
2022/07/30 19:04:07;;;;;;;2.78;1.98;;;;;;;23.03;42.69;100583.41;10205682;28;21080;-79
2022/07/30 19:09:11;;;;;;;3.85;2.10;;;;;;;22.84;42.64;100588.56;10205578;28;20052;-81
2022/07/30 19:14:19;;;;;;;3.70;1.83;;;;;;;22.65;43.42;100592.84;10203201;29;20047;-80
2022/07/30 19:19:22;;;;;;;6.60;2.50;;;;;;;22.52;44.12;100600.97;10207317;29;20553;-80
2022/07/30 19:24:26;;;;;;;4.85;1.98;;;;;;;22.33;43.64;100599.72;10208320;29;20054;-80
2022/07/30 19:29:29;;;;;;;1.98;1.75;;;;;;;21.93;42.41;100612.97;10221628;29;20138;-81
2022/07/30 19:34:33;;;;;;;4.50;1.80;;;;;;;21.99;42.63;100619.56;10217305;29;20510;-80
2022/07/30 19:39:37;;;;;;;2.70;1.83;;;;;;;21.98;42.53;100626.09;10206567;29;20687;-80
2022/07/30 19:45:00;;;;;;;3.55;1.90;;;;;;;21.91;42.34;100639.66;10202930;29;20580;-79
2022/07/30 19:50:13;;;;;;;3.05;2.25;;;;;;;21.65;42.60;100641.00;10204306;29;20084;-80
2022/07/30 20:01:32;;;;;;;3.15;1.67;;;;;;;21.64;41.34;100647.53;10190318;29;20055;-79
2022/07/30 20:06:43;;;;;;;;;;;;;;;21.58;40.29;100652.91;10200948;28;20062;-79
2022/07/30 20:11:47;;;;;;;2.35;1.30;;;;;;;21.40;40.60;100654.16;10194328;28;20467;-79
2022/07/30 20:16:53;;;;;;;3.03;1.40;;;;;;;21.34;39.77;100667.72;10197883;28;20096;-79
2022/07/30 20:21:56;;;;;;;3.47;1.40;;;;;;;21.34;40.03;100673.19;10196289;28;20056;-79
2022/07/30 20:27:00;;;;;;;1.45;1.30;;;;;;;21.24;39.35;100670.72;10181857;28;20052;-79
2022/07/30 20:32:24;;;;;;;4.28;1.35;;;;;;;21.19;39.68;100676.75;10178402;28;20110;-79
2022/07/30 20:37:27;;;;;;;4.30;1.30;;;;;;;21.17;39.38;100673.38;10182508;28;20052;-79
2022/07/30 20:42:31;;;;;;;2.25;1.60;;;;;;;21.23;39.45;100679.97;10190558;28;20050;-79
2022/07/30 20:47:35;;;;;;;2.10;1.80;;;;;;;21.16;39.28;100687.19;10193239;28;20044;-78
2022/07/30 20:52:40;;;;;;;3.45;1.70;;;;;;;21.12;40.09;100678.53;10186629;29;20052;-79
2022/07/30 20:57:48;;;;;;;3.10;1.67;;;;;;;21.14;39.66;100686.53;10178665;28;20111;-79
2022/07/30 21:03:12;;;;;;;0.90;0.88;;;;;;;21.15;39.89;100682.78;10181580;28;20094;-79
2022/07/30 21:08:15;;;;;;;3.13;1.50;;;;;;;21.04;40.15;100684.09;10179115;28;20056;-79
2022/07/30 21:13:18;;;;;;;3.13;2.22;;;;;;;20.90;40.41;100693.91;10173950;28;20134;-79
2022/07/30 21:18:24;;;;;;;3.67;2.15;;;;;;;20.89;40.72;100689.47;10182416;29;20439;-79
2022/07/30 21:23:28;;;;;;;4.35;2.08;;;;;;;20.95;40.99;100696.94;10187747;28;20051;-79
2022/07/30 21:28:32;;;;;;;2.38;2.17;;;;;;;20.91;41.68;100698.34;10191519;28;20493;-80
2022/07/30 21:33:39;;;;;;;2.30;1.90;;;;;;;20.90;41.15;100690.31;10178200;29;20055;-78
2022/07/30 21:38:42;;;;;;;2.72;1.92;;;;;;;20.90;41.30;100693.03;10184208;29;20048;-78
2022/07/30 21:43:46;;;;;;;5.60;3.47;;;;;;;20.88;41.98;100692.41;10181586;28;20107;-78
2022/07/30 21:48:53;;;;;;;2.20;1.77;;;;;;;20.77;41.74;100701.88;10182897;28;20103;-78
2022/07/30 21:54:00;;;;;;;2.75;1.50;;;;;;;20.78;41.93;100701.69;10179441;28;20062;-79
2022/07/30 21:59:09;;;;;;;2.22;1.50;;;;;;;20.52;42.09;100707.53;10197287;29;20055;-78
2022/07/30 22:04:14;;;;;;;7.15;1.92;;;;;;;20.44;42.54;100704.88;10181761;29;20093;-78
2022/07/30 22:09:18;;;;;;;2.83;1.92;;;;;;;20.49;42.26;100705.16;10179967;29;21150;-77
2022/07/30 22:14:35;;;;;;;3.38;1.85;;;;;;;20.20;43.01;100714.00;10178002;29;20048;-78
2022/07/30 22:19:39;;;;;;;3.55;1.90;;;;;;;20.20;43.82;100705.84;10177846;29;20103;-77
2022/07/30 22:24:42;;;;;;;1.95;1.73;;;;;;;20.32;43.62;100707.16;10179384;29;20076;-78
2022/07/30 22:29:46;;;;;;;3.30;2.13;;;;;;;20.31;43.93;100707.34;10179633;29;20417;-78
2022/07/30 22:34:51;;;;;;;4.55;2.03;;;;;;;20.01;44.18;100689.94;10177281;29;20051;-78
2022/07/30 22:39:54;;;;;;;2.55;1.67;;;;;;;19.74;45.04;100693.97;10190068;29;20130;-78
2022/07/30 22:44:59;;;;;;;3.53;2.40;;;;;;;19.74;45.36;100696.69;10186630;29;20138;-76
2022/07/30 22:50:04;;;;;;;2.05;1.60;;;;;;;19.80;45.07;100688.69;10178704;29;20508;-78
2022/07/30 22:55:09;;;;;;;2.30;1.80;;;;;;;19.58;45.62;100679.41;10186732;29;20199;-78
2022/07/30 23:00:16;;;;;;;2.38;1.52;;;;;;;19.46;45.92;100673.44;10176617;29;20055;-78
2022/07/30 23:05:31;;;;;;;2.33;1.58;;;;;;;19.59;46.66;100672.94;10175352;29;20649;-78
2022/07/30 23:10:54;;;;;;;5.00;1.80;;;;;;;19.77;47.09;100674.53;10174990;29;20080;-77
2022/07/30 23:15:57;;;;;;;3.30;1.73;;;;;;;19.16;47.12;100682.38;10175096;29;20055;-78
2022/07/30 23:21:02;;;;;;;2.15;1.80;;;;;;;19.28;47.19;100674.69;10175101;29;20059;-78
2022/07/30 23:26:05;;;;;;;3.08;1.45;;;;;;;19.32;47.23;100678.78;10177367;29;20062;-78
2022/07/30 23:31:08;;;;;;;3.60;1.80;;;;;;;19.15;47.41;100667.94;10192242;29;20497;-78
2022/07/30 23:36:12;;;;;;;2.20;1.88;;;;;;;18.84;48.37;100666.94;10179350;29;20515;-78
2022/07/30 23:41:15;;;;;;;2.30;2.10;;;;;;;18.83;48.91;100652.50;10184915;29;20101;-78
2022/07/30 23:46:31;;;;;;;2.47;1.92;;;;;;;18.85;48.80;100655.06;10168826;29;20071;-78
2022/07/30 23:51:35;;;;;;;6.03;3.63;;;;;;;18.83;49.38;100652.50;10182981;29;20076;-77